Swainton, New Jersey
Current Conditions -  °F | °C
As of 11:15 AM on Thursday 27 Nov 2014 (Local Time) from KWWD Reporting Station
Broken Clouds Broken Clouds  
Wind Chill: 33°   Ceiling: 7500
Heat Index: 39°   Visibility: 10mi
Dew Point: 30°   Wind: 9mph
Humidity: 70%   Direction: 290°WNW
Pressure: 30.01"   Gusts: NA
Location:  39.1108°N, 74.8241°W
Report Text: KWWD 271615Z AUTO 29008KT 10SM FEW015 BKN075 04/M01 A3001 RMK AO1
Loading
Personal Weather Stations






























Interactive Weather Map New forecast layout! Learn more

10-Day Weather Forecast

Advertisements
Track Severe Weather on mobile